Time;durP1;ratioP1;P1;durP2;ratioP2;P2;SDS_P1;SDS_P2;PMS_P1;PMS_P2;Temp;Humidity;BMP_temperature;BMP_pressure;BME280_temperature;BME280_humidity;BME280_pressure;Samples;Min_cycle;Max_cycle;Signal;HPM_P1;HPM_P2
2022/04/06 00:00:43;;;;;;;32.47;8.07;;;;;;;17.89;100.00;100259.16;5019516;28;20026;-51
2022/04/06 00:03:09;;;;;;;25.17;6.82;;;;;;;17.42;100.00;100274.97;5016577;28;20030;-50
2022/04/06 00:05:34;;;;;;;28.95;7.50;;;;;;;18.16;100.00;100264.50;5016666;28;20046;-46
2022/04/06 00:08:01;;;;;;;23.83;7.22;;;;;;;17.83;100.00;100261.00;5016525;28;20037;-50
2022/04/06 00:10:28;;;;;;;22.45;6.78;;;;;;;17.78;100.00;100263.69;5016437;28;20092;-51
2022/04/06 00:12:54;;;;;;;27.10;8.47;;;;;;;17.39;100.00;100270.06;5016402;28;20031;-50
2022/04/06 00:15:20;;;;;;;28.42;7.75;;;;;;;17.77;100.00;100257.44;5016559;28;20283;-52
2022/04/06 00:17:46;;;;;;;28.38;9.10;;;;;;;17.80;100.00;100256.13;5016602;28;20047;-52
2022/04/06 00:20:12;;;;;;;30.95;9.50;;;;;;;17.91;100.00;100257.81;5016130;28;20084;-52
2022/04/06 00:22:38;;;;;;;29.65;9.55;;;;;;;17.81;100.00;100249.63;5016274;28;20041;-48
2022/04/06 00:25:04;;;;;;;24.20;8.88;;;;;;;17.77;100.00;100254.72;5016420;28;20026;-50
2022/04/06 00:27:30;;;;;;;29.38;10.18;;;;;;;17.41;100.00;100256.31;5016480;28;20045;-47
2022/04/06 00:29:58;;;;;;;30.37;10.47;;;;;;;17.49;100.00;100239.59;5016235;28;20034;-52
2022/04/06 00:32:24;;;;;;;30.23;8.97;;;;;;;17.39;100.00;100245.72;5016142;28;20299;-48
2022/04/06 00:37:34;;;;;;;27.47;11.00;;;;;;;17.98;100.00;100235.97;5015825;28;19925;-49
2022/04/06 00:40:00;;;;;;;39.80;12.87;;;;;;;17.72;100.00;100234.94;5015814;28;20280;-52
2022/04/06 00:42:26;;;;;;;33.53;10.60;;;;;;;17.74;100.00;100241.72;5015800;28;20035;-47
2022/04/06 00:44:51;;;;;;;40.43;11.67;;;;;;;17.54;100.00;100236.97;5010093;28;20097;-50
2022/04/06 00:47:16;;;;;;;28.83;11.60;;;;;;;17.51;100.00;100237.47;5005153;28;20026;-48
2022/04/06 00:49:42;;;;;;;38.87;13.20;;;;;;;17.43;100.00;100224.44;5003741;28;20471;-48
2022/04/06 00:52:08;;;;;;;35.85;11.75;;;;;;;17.34;100.00;100227.59;5011815;28;20034;-49
2022/04/06 00:54:35;;;;;;;29.92;11.43;;;;;;;17.45;100.00;100220.41;4999660;28;20034;-50
2022/04/06 00:57:00;;;;;;;40.13;12.05;;;;;;;17.05;100.00;100227.84;5008776;28;20031;-50
2022/04/06 00:59:29;;;;;;;34.63;12.50;;;;;;;17.32;100.00;100223.50;4995792;28;20034;-49
2022/04/06 01:01:55;;;;;;;35.50;11.63;;;;;;;17.24;100.00;100223.97;4992943;28;20034;-49
2022/04/06 01:04:21;;;;;;;27.25;11.32;;;;;;;17.43;100.00;100229.84;4999056;28;20280;-47
2022/04/06 01:06:49;;;;;;;37.30;11.65;;;;;;;17.58;100.00;100227.28;5015811;28;20061;-48
2022/04/06 01:09:19;;;;;;;35.67;11.80;;;;;;;17.33;100.00;100220.56;5006536;28;20035;-50
2022/04/06 01:11:47;;;;;;;31.20;11.97;;;;;;;17.56;100.00;100212.38;5008571;28;20367;-49
2022/04/06 01:14:13;;;;;;;39.07;11.83;;;;;;;17.81;100.00;100209.06;4998969;28;20299;-51
2022/04/06 01:16:40;;;;;;;35.47;11.60;;;;;;;17.16;100.00;100206.34;5000751;28;20257;-49
2022/04/06 01:19:06;;;;;;;37.67;10.80;;;;;;;17.60;100.00;100216.19;4995589;28;20054;-48
2022/04/06 01:21:32;;;;;;;31.58;9.98;;;;;;;17.42;100.00;100206.59;5006617;28;20283;-48
2022/04/06 01:23:57;;;;;;;28.10;9.90;;;;;;;17.74;100.00;100208.44;5000955;28;20035;-50
2022/04/06 01:26:24;;;;;;;28.70;8.65;;;;;;;17.28;100.00;100206.19;5011822;28;20046;-47
2022/04/06 01:28:50;;;;;;;33.00;8.53;;;;;;;17.47;100.00;100203.91;5000674;28;20099;-48
2022/04/06 01:31:17;;;;;;;30.60;8.50;;;;;;;17.32;100.00;100200.03;5006297;28;20268;-54
2022/04/06 01:33:43;;;;;;;27.05;6.90;;;;;;;16.96;100.00;100217.72;5007832;28;20049;-48
2022/04/06 01:36:08;;;;;;;34.70;8.00;;;;;;;17.34;100.00;100192.47;4999230;28;20052;-49
2022/04/06 01:38:34;;;;;;;26.57;8.27;;;;;;;17.90;100.00;100199.38;5011405;28;20051;-48
2022/04/06 01:41:00;;;;;;;23.83;7.70;;;;;;;17.89;100.00;100205.06;5001722;28;20275;-49
2022/04/06 01:43:26;;;;;;;30.73;8.52;;;;;;;17.22;100.00;100207.22;5014435;28;20050;-49
2022/04/06 01:45:52;;;;;;;36.42;6.72;;;;;;;17.13;100.00;100198.75;5015047;28;20053;-46
2022/04/06 01:48:18;;;;;;;29.43;6.83;;;;;;;16.85;100.00;100203.28;5014413;28;20049;-47
2022/04/06 01:53:30;;;;;;;16.77;6.50;;;;;;;17.40;100.00;100192.50;5014595;28;20045;-48
2022/04/06 01:55:56;;;;;;;22.05;5.75;;;;;;;17.39;100.00;100185.47;5014648;28;20283;-46
2022/04/06 01:58:22;;;;;;;28.80;7.28;;;;;;;17.30;100.00;100237.28;4997350;28;20069;-49
2022/04/06 02:00:48;;;;;;;;;;;;;;;17.34;100.00;100195.19;5015167;28;20030;-50
2022/04/06 02:03:13;;;;;;;24.93;5.80;;;;;;;17.02;100.00;100198.63;5014620;28;19917;-51
2022/04/06 02:05:39;;;;;;;20.07;5.70;;;;;;;16.84;100.00;100194.38;5014570;28;20042;-48
2022/04/06 02:08:05;;;;;;;18.77;6.43;;;;;;;17.40;100.00;100192.50;5014377;28;20031;-51
2022/04/06 02:10:30;;;;;;;18.55;6.18;;;;;;;17.25;100.00;100191.28;5014500;28;20056;-46
2022/04/06 02:12:58;;;;;;;23.33;7.18;;;;;;;17.23;100.00;100182.63;5014063;28;20034;-48
2022/04/06 02:15:25;;;;;;;15.60;5.17;;;;;;;17.04;100.00;100196.50;5014446;28;20052;-51
2022/04/06 02:17:51;;;;;;;19.83;5.43;;;;;;;17.01;100.00;100197.00;5014354;28;20284;-48
2022/04/06 02:20:17;;;;;;;20.83;6.45;;;;;;;17.00;100.00;100178.38;5030287;28;20302;-51
2022/04/06 02:22:43;;;;;;;19.85;5.53;;;;;;;17.25;100.00;100174.28;5013886;28;20031;-48
2022/04/06 02:25:12;;;;;;;18.15;5.72;;;;;;;17.27;100.00;100191.03;5014301;28;20034;-49
2022/04/06 02:27:45;;;;;;;25.83;6.90;;;;;;;17.22;100.00;100178.28;5014304;28;20098;-50
2022/04/06 02:30:11;;;;;;;18.17;5.23;;;;;;;18.08;95.53;100183.84;5014249;28;20276;-50
2022/04/06 02:32:36;;;;;;;16.90;4.28;;;;;;;17.37;97.88;100174.09;5014266;28;20280;-47
2022/04/06 02:35:02;;;;;;;16.10;4.53;;;;;;;17.37;96.80;100179.50;5013858;28;20074;-47
2022/04/06 02:37:27;;;;;;;23.10;5.17;;;;;;;16.89;100.00;100172.00;5014201;28;20058;-48
2022/04/06 02:39:53;;;;;;;14.80;5.07;;;;;;;16.85;100.00;100163.59;5014258;28;20105;-51
2022/04/06 02:42:18;;;;;;;19.23;3.83;;;;;;;16.97;98.22;100160.75;5013995;28;20035;-48
2022/04/06 02:44:43;;;;;;;17.47;5.17;;;;;;;17.23;97.19;100166.41;5014081;28;20283;-48
2022/04/06 02:47:09;;;;;;;17.20;4.47;;;;;;;17.19;98.37;100160.72;5014016;28;20157;-49
2022/04/06 02:49:35;;;;;;;24.70;5.10;;;;;;;18.05;89.31;100160.00;5014160;28;20053;-47
2022/04/06 02:52:00;;;;;;;20.10;5.23;;;;;;;17.22;94.26;100178.28;5013945;28;20290;-47
2022/04/06 02:54:25;;;;;;;22.47;4.93;;;;;;;17.06;95.23;100167.34;5014054;28;20071;-48
2022/04/06 02:56:51;;;;;;;17.30;5.30;;;;;;;17.06;92.62;100172.72;5013905;28;20022;-48
2022/04/06 02:59:16;;;;;;;12.43;4.10;;;;;;;16.85;98.34;100158.19;5022249;28;20060;-48
2022/04/06 03:01:42;;;;;;;29.63;5.00;;;;;;;16.53;100.00;100152.69;5022239;28;20034;-46
2022/04/06 03:04:07;;;;;;;19.47;4.73;;;;;;;16.91;98.30;100149.06;5018333;28;20030;-47
2022/04/06 03:06:32;;;;;;;15.00;3.63;;;;;;;16.74;96.91;100149.16;5015131;28;20085;-47
2022/04/06 03:08:58;;;;;;;17.50;3.90;;;;;;;16.51;99.68;100142.19;5013891;28;20022;-49
2022/04/06 03:11:23;;;;;;;16.27;3.77;;;;;;;16.91;95.16;100137.47;4996887;28;20281;-47
2022/04/06 03:13:50;;;;;;;17.03;4.40;;;;;;;16.30;99.47;100147.31;5013728;28;20042;-49
2022/04/06 03:16:16;;;;;;;16.47;3.90;;;;;;;17.01;92.93;100134.88;5013606;28;20041;-47
2022/04/06 03:18:41;;;;;;;19.00;3.80;;;;;;;16.78;95.60;100125.19;5013960;28;20308;-47
2022/04/06 03:21:07;;;;;;;15.47;3.93;;;;;;;16.83;92.98;100124.41;5013755;28;20039;-47
2022/04/06 03:23:32;;;;;;;12.13;3.30;;;;;;;16.58;95.44;100123.91;5013721;28;20058;-47
2022/04/06 03:25:58;;;;;;;17.67;3.97;;;;;;;16.04;99.50;100132.69;5013838;28;20035;-46
2022/04/06 03:28:23;;;;;;;19.00;3.20;;;;;;;16.67;92.69;100123.44;5013820;28;20080;-49
2022/04/06 03:30:49;;;;;;;13.82;3.35;;;;;;;16.57;93.38;100113.34;5012912;28;20046;-49
2022/04/06 03:33:15;;;;;;;8.50;2.70;;;;;;;16.63;89.79;100115.84;5015630;28;20042;-48
2022/04/06 03:35:41;;;;;;;15.82;3.30;;;;;;;16.20;94.81;100117.50;5017387;28;20105;-52
2022/04/06 03:38:07;;;;;;;9.90;3.08;;;;;;;16.53;91.86;100113.03;5017037;28;20105;-49
2022/04/06 03:40:32;;;;;;;14.52;3.15;;;;;;;16.23;94.36;100127.78;5033527;28;20042;-52
2022/04/06 03:42:58;;;;;;;11.03;2.80;;;;;;;16.45;91.98;100110.78;5017022;28;20053;-48
2022/04/06 03:45:24;;;;;;;13.52;2.70;;;;;;;16.47;89.51;100127.53;5017029;28;20053;-50
2022/04/06 03:47:49;;;;;;;14.05;3.00;;;;;;;16.68;88.04;100114.25;5015333;28;20086;-48
2022/04/06 03:50:16;;;;;;;7.35;2.47;;;;;;;16.37;89.53;100113.94;5015825;28;20042;-49
2022/04/06 03:52:41;;;;;;;10.55;2.97;;;;;;;16.78;86.86;100107.09;5016071;28;20090;-47
2022/04/06 03:55:08;;;;;;;13.05;2.85;;;;;;;16.66;87.33;100113.72;5017344;28;20038;-50
2022/04/06 03:57:35;;;;;;;11.23;2.53;;;;;;;16.45;87.85;100108.91;5017257;28;20048;-51
2022/04/06 04:00:04;;;;;;;9.10;3.03;;;;;;;16.73;85.21;100107.03;5017571;28;20353;-52
2022/04/06 04:02:30;;;;;;;8.83;3.53;;;;;;;16.85;83.35;100097.97;5016985;28;20054;-54
2022/04/06 04:04:55;;;;;;;7.55;1.90;;;;;;;16.31;85.52;100110.34;5016817;28;20268;-47
2022/04/06 04:07:21;;;;;;;9.90;2.35;;;;;;;16.74;84.91;100114.06;5016817;28;20027;-50
2022/04/06 04:09:49;;;;;;;11.47;3.37;;;;;;;16.76;84.82;100103.81;5000211;28;20042;-49
2022/04/06 04:12:15;;;;;;;12.70;2.87;;;;;;;16.45;86.50;100113.47;5016749;28;20082;-50
2022/04/06 04:14:41;;;;;;;11.07;2.80;;;;;;;16.70;84.54;100104.84;5016625;28;20279;-51
2022/04/06 04:17:07;;;;;;;9.18;2.70;;;;;;;16.69;83.01;100108.63;5016344;28;20042;-52
2022/04/06 04:19:32;;;;;;;14.80;2.40;;;;;;;16.46;83.89;100102.44;5026242;28;20038;-50
2022/04/06 04:21:58;;;;;;;12.00;2.58;;;;;;;16.39;85.84;100099.13;5022318;28;20038;-52
2022/04/06 04:24:23;;;;;;;12.20;2.50;;;;;;;15.95;89.12;100088.34;5015974;28;20046;-51
2022/04/06 04:26:48;;;;;;;11.67;2.53;;;;;;;16.58;85.32;100091.50;5016336;28;20097;-50
2022/04/06 04:29:15;;;;;;;8.00;2.67;;;;;;;16.34;85.52;100094.47;5016523;28;20058;-47
2022/04/06 04:31:40;;;;;;;8.45;2.88;;;;;;;16.05;87.69;100110.03;5016131;28;20034;-50
2022/04/06 04:34:07;;;;;;;12.15;3.00;;;;;;;16.40;86.71;100084.56;5016083;28;20118;-47
2022/04/06 04:36:33;;;;;;;10.77;2.23;;;;;;;16.00;89.08;100093.78;5015936;28;20105;-52
2022/04/06 04:38:58;;;;;;;12.30;2.97;;;;;;;16.15;88.36;100090.47;5021087;28;20283;-48
2022/04/06 04:41:24;;;;;;;8.35;3.00;;;;;;;16.18;87.68;100084.56;5026845;28;20034;-47
2022/04/06 04:43:50;;;;;;;11.73;3.03;;;;;;;16.85;83.85;100096.09;5015624;28;20046;-49
2022/04/06 04:46:19;;;;;;;8.35;3.22;;;;;;;16.15;87.00;100087.78;5015806;28;20053;-47
2022/04/06 04:48:45;;;;;;;12.63;2.83;;;;;;;16.90;83.29;100087.22;5000106;28;20037;-48
2022/04/06 04:51:12;;;;;;;18.90;3.63;;;;;;;16.56;84.75;100082.00;5015913;28;20291;-47
2022/04/06 04:53:38;;;;;;;12.30;2.80;;;;;;;16.41;86.26;100079.97;5015647;28;20034;-47
2022/04/06 04:56:04;;;;;;;19.00;2.77;;;;;;;16.53;84.11;100082.53;5015520;28;20331;-47
2022/04/06 04:58:29;;;;;;;12.13;2.33;;;;;;;16.07;88.53;100078.22;5015705;28;20288;-48
2022/04/06 05:00:55;;;;;;;14.90;2.80;;;;;;;16.47;86.47;100078.94;5015890;28;20049;-52
2022/04/06 05:03:21;;;;;;;15.17;4.37;;;;;;;16.21;87.67;100084.06;5015407;28;20041;-49
2022/04/06 05:05:49;;;;;;;9.20;2.63;;;;;;;16.21;89.63;100070.56;5015685;28;20066;-49
2022/04/06 05:08:15;;;;;;;12.67;3.17;;;;;;;16.20;91.09;100061.69;5015610;28;20057;-49
2022/04/06 05:10:40;;;;;;;18.33;3.55;;;;;;;16.08;92.42;100050.19;5015401;28;20317;-51
2022/04/06 05:13:06;;;;;;;9.93;3.07;;;;;;;16.27;89.10;100057.97;5015286;28;20038;-52
2022/04/06 05:15:31;;;;;;;21.47;4.23;;;;;;;16.18;92.19;100065.69;5015084;28;20051;-46
2022/04/06 05:17:56;;;;;;;16.87;3.70;;;;;;;16.15;93.21;100034.66;5015214;28;20061;-46
2022/04/06 05:20:22;;;;;;;17.70;4.70;;;;;;;16.30;90.44;100042.09;4994959;28;20041;-50
2022/04/06 05:22:47;;;;;;;21.03;4.03;;;;;;;16.96;86.03;100047.56;5015478;28;20061;-51
2022/04/06 05:25:13;;;;;;;16.40;4.57;;;;;;;16.57;88.33;100054.78;5015413;28;20042;-54
2022/04/06 05:27:48;;;;;;;15.97;4.17;;;;;;;16.14;94.23;100043.78;5014923;28;20057;-48
2022/04/06 05:30:15;;;;;;;19.33;5.90;;;;;;;16.15;95.58;100067.03;5015221;28;20046;-48
2022/04/06 05:32:41;;;;;;;;;;;;;;;16.32;95.32;100041.84;4998446;28;20296;-51
2022/04/06 05:35:09;;;;;;;20.57;5.03;;;;;;;16.78;90.91;100039.59;5014741;28;19914;-51
2022/04/06 05:37:43;;;;;;;18.83;5.70;;;;;;;16.67;92.07;100055.94;5014848;28;20291;-49
2022/04/06 05:40:10;;;;;;;29.90;5.60;;;;;;;16.30;94.33;100041.28;5029152;28;20286;-47
2022/04/06 05:42:36;;;;;;;21.73;5.90;;;;;;;16.68;92.38;100044.06;5016064;28;20276;-46
2022/04/06 05:45:04;;;;;;;22.60;5.30;;;;;;;16.72;91.96;100048.72;5009322;28;20293;-48
2022/04/06 05:47:29;;;;;;;20.27;6.00;;;;;;;16.55;93.10;100037.22;5003632;28;20085;-47
2022/04/06 05:49:54;;;;;;;17.97;5.07;;;;;;;16.77;90.95;100040.66;4994874;28;20273;-46
2022/04/06 05:52:20;;;;;;;20.40;4.90;;;;;;;17.18;87.05;100028.59;5011185;28;20030;-47
2022/04/06 05:54:46;;;;;;;19.52;5.32;;;;;;;17.14;87.71;100044.50;4998655;28;20030;-51
2022/04/06 05:57:11;;;;;;;29.13;5.87;;;;;;;16.29;93.58;100032.38;5006833;28;20038;-48
2022/04/06 05:59:37;;;;;;;14.73;4.77;;;;;;;16.94;89.57;100045.13;4995102;28;20034;-48
2022/04/06 06:02:04;;;;;;;16.92;4.95;;;;;;;16.56;90.22;100049.63;5008267;28;20041;-50
2022/04/06 06:04:29;;;;;;;10.03;4.60;;;;;;;16.66;91.30;100038.13;4997630;28;20042;-51
2022/04/06 06:06:55;;;;;;;15.80;4.67;;;;;;;16.66;90.84;100038.94;5010011;28;20277;-53
2022/04/06 06:09:20;;;;;;;19.50;4.47;;;;;;;17.06;86.02;100051.19;5002671;28;20057;-48
2022/04/06 06:11:46;;;;;;;16.67;3.92;;;;;;;16.43;90.06;100046.28;5003043;28;20042;-48
2022/04/06 06:14:11;;;;;;;22.40;5.03;;;;;;;16.61;90.33;100033.50;5009645;28;20097;-52
2022/04/06 06:16:37;;;;;;;13.93;3.80;;;;;;;16.63;88.31;100039.47;4998134;28;20049;-51
2022/04/06 06:19:02;;;;;;;14.77;3.47;;;;;;;16.76;87.66;100032.81;5008986;28;20497;-49
2022/04/06 06:21:31;;;;;;;15.02;3.60;;;;;;;16.53;88.72;100029.38;5003316;28;20026;-50
2022/04/06 06:24:05;;;;;;;12.90;2.80;;;;;;;16.19;89.79;100027.69;5001478;28;20067;-50
2022/04/06 06:26:35;;;;;;;13.57;2.97;;;;;;;16.49;88.03;100037.16;5010818;28;20275;-50
2022/04/06 06:29:00;;;;;;;12.57;3.07;;;;;;;17.33;81.49;100035.97;4999316;28;20299;-48
2022/04/06 06:31:28;;;;;;;9.63;2.60;;;;;;;16.58;83.84;100042.09;4994985;28;20265;-47
2022/04/06 06:33:57;;;;;;;15.80;2.97;;;;;;;16.47;84.50;100051.97;4989748;28;20048;-49
2022/04/06 06:36:23;;;;;;;8.33;2.60;;;;;;;16.90;82.43;100039.41;4997964;28;20268;-48
2022/04/06 06:38:49;;;;;;;;;;;;;;;16.69;80.82;100043.00;4978831;28;20272;-47
2022/04/06 06:41:15;;;;;;;10.57;2.03;;;;;;;16.59;81.32;100038.31;4995079;28;20014;-50
2022/04/06 06:43:41;;;;;;;11.07;2.10;;;;;;;16.66;78.39;100038.94;4999538;28;20300;-46
2022/04/06 06:46:06;;;;;;;11.10;2.40;;;;;;;16.42;80.21;100033.84;5012680;28;20034;-51
2022/04/06 06:48:31;;;;;;;7.50;1.90;;;;;;;16.52;80.78;100037.72;5012677;28;20125;-50
2022/04/06 06:50:57;;;;;;;15.40;2.30;;;;;;;16.70;78.38;100045.47;5012579;28;20034;-48
2022/04/06 06:53:22;;;;;;;6.20;1.77;;;;;;;16.87;76.76;100031.03;4995831;28;20038;-48
2022/04/06 06:55:48;;;;;;;10.87;2.10;;;;;;;16.83;76.53;100021.78;5012866;28;20046;-50
2022/04/06 06:58:14;;;;;;;9.77;2.08;;;;;;;16.88;75.72;100033.47;5012876;28;20038;-49
2022/04/06 07:00:39;;;;;;;11.03;2.67;;;;;;;16.96;75.56;100017.88;5014682;28;20045;-49
2022/04/06 07:03:04;;;;;;;14.40;2.03;;;;;;;17.02;73.53;100020.38;5013324;28;20082;-52
2022/04/06 07:05:30;;;;;;;8.13;1.75;;;;;;;17.39;70.90;100031.44;5013007;28;20476;-51
2022/04/06 07:08:02;;;;;;;6.20;1.93;;;;;;;16.97;71.88;100033.00;4997686;28;20430;-49
2022/04/06 07:10:29;;;;;;;13.83;1.83;;;;;;;16.38;74.08;100038.13;5017399;28;20034;-50
2022/04/06 07:12:56;;;;;;;7.83;2.33;;;;;;;17.02;71.02;100019.56;5017622;28;20276;-48
2022/04/06 07:15:22;;;;;;;11.18;2.83;;;;;;;16.88;70.36;100013.75;5000288;28;20355;-51
2022/04/06 07:17:51;;;;;;;;;;;;;;;16.61;71.90;100033.50;5017727;28;20050;-47
2022/04/06 07:20:17;;;;;;;14.53;1.90;;;;;;;17.29;68.55;100019.47;5032445;28;19984;-47
2022/04/06 07:22:42;;;;;;;8.33;1.70;;;;;;;16.81;70.40;100007.72;5018198;28;20286;-50
2022/04/06 07:25:08;;;;;;;10.27;1.60;;;;;;;16.77;71.12;100008.25;5016921;28;20050;-50
2022/04/06 07:27:37;;;;;;;9.45;1.80;;;;;;;17.22;69.47;100010.78;5017005;28;20038;-51
2022/04/06 07:30:04;;;;;;;15.70;1.93;;;;;;;16.56;72.53;100020.78;5016968;28;20070;-49
2022/04/06 07:32:30;;;;;;;6.87;1.40;;;;;;;16.80;71.98;100001.53;5016847;28;20359;-52
2022/04/06 07:34:56;;;;;;;11.50;3.00;;;;;;;16.56;73.33;99995.66;5016984;28;20255;-51
2022/04/06 07:37:21;;;;;;;8.00;2.63;;;;;;;16.86;72.08;99983.50;5016655;28;20047;-47
2022/04/06 07:39:46;;;;;;;13.40;2.10;;;;;;;16.64;72.91;99992.50;5027763;28;20113;-51
2022/04/06 07:42:12;;;;;;;14.03;2.50;;;;;;;16.81;74.04;99984.25;5022018;28;20066;-47
2022/04/06 07:44:37;;;;;;;4.40;1.83;;;;;;;16.66;73.43;99984.97;5014853;28;20066;-48
2022/04/06 07:47:02;;;;;;;10.93;2.20;;;;;;;16.77;72.59;99992.06;5002111;28;20096;-46
2022/04/06 07:49:28;;;;;;;12.30;2.20;;;;;;;17.01;71.59;100026.84;5007158;28;20038;-46
2022/04/06 07:51:53;;;;;;;6.30;1.77;;;;;;;17.12;71.96;99983.72;4996300;28;20061;-50
2022/04/06 07:54:18;;;;;;;5.00;1.70;;;;;;;17.10;73.32;99977.75;5002497;28;20035;-51
2022/04/06 07:56:44;;;;;;;12.30;1.67;;;;;;;17.24;71.23;99976.22;4993781;28;20103;-51
2022/04/06 07:59:09;;;;;;;7.07;2.10;;;;;;;17.48;71.62;99968.50;4996582;28;20039;-48
2022/04/06 08:01:35;;;;;;;7.23;1.93;;;;;;;17.01;72.64;99972.03;5009269;28;20046;-50
2022/04/06 08:04:00;;;;;;;6.27;2.13;;;;;;;17.31;72.74;99971.41;5000841;28;20391;-48
2022/04/06 08:06:26;;;;;;;11.25;1.77;;;;;;;17.62;71.35;99963.44;5012799;28;20030;-48
2022/04/06 08:08:53;;;;;;;14.27;4.50;;;;;;;16.90;74.42;99990.00;5002707;28;20034;-51
2022/04/06 08:11:19;;;;;;;8.80;1.97;;;;;;;17.17;73.17;99979.13;5006163;28;20042;-49
2022/04/06 08:13:44;;;;;;;10.00;2.38;;;;;;;17.71;71.76;99981.84;4996013;28;20352;-50
2022/04/06 08:16:10;;;;;;;11.93;2.20;;;;;;;17.15;73.73;99981.28;5012985;28;20046;-51
2022/04/06 08:18:36;;;;;;;11.50;2.83;;;;;;;17.45;73.63;99970.91;4996047;28;20042;-49
2022/04/06 08:21:09;;;;;;;9.30;2.70;;;;;;;17.03;73.92;99962.56;5003500;28;20062;-49
2022/04/06 08:23:34;;;;;;;8.07;2.00;;;;;;;17.71;72.01;99987.25;5003672;28;20050;-49
2022/04/06 08:26:20;;;;;;;9.77;2.75;;;;;;;16.92;76.08;99966.25;5011867;28;20276;-49
2022/04/06 08:28:47;;;;;;;12.03;2.57;;;;;;;16.99;76.84;99966.06;4985287;28;20069;-51
2022/04/06 08:31:12;;;;;;;12.27;2.50;;;;;;;17.26;80.83;99975.97;5005620;28;20279;-49
2022/04/06 08:33:41;;;;;;;13.07;3.33;;;;;;;17.53;89.86;99981.25;5003390;28;20397;-50
2022/04/06 08:36:09;;;;;;;14.50;3.87;;;;;;;16.93;99.39;99962.47;5011871;28;20303;-48
2022/04/06 08:38:35;;;;;;;9.87;3.67;;;;;;;17.15;100.00;99969.69;4996057;28;20280;-52
2022/04/06 08:41:06;;;;;;;13.17;3.13;;;;;;;16.21;100.00;99976.16;5003395;28;20280;-51
2022/04/06 08:43:41;;;;;;;12.40;3.40;;;;;;;17.03;100.00;99962.56;5007478;28;20287;-51
2022/04/06 08:46:12;;;;;;;14.67;3.30;;;;;;;16.75;100.00;99974.50;5015490;28;20311;-50
2022/04/06 08:48:38;;;;;;;14.23;3.60;;;;;;;16.99;97.27;99974.16;5015536;28;20299;-54
2022/04/06 08:51:08;;;;;;;9.18;3.05;;;;;;;16.92;100.00;99979.75;5015535;28;20299;-53
2022/04/06 08:53:39;;;;;;;11.70;3.53;;;;;;;16.80;100.00;99979.13;5015114;28;20061;-49
2022/04/06 08:56:04;;;;;;;18.13;4.10;;;;;;;17.48;100.00;99976.63;5015150;28;20272;-53
2022/04/06 08:58:30;;;;;;;11.18;3.95;;;;;;;17.44;100.00;99978.22;5018504;28;20425;-50
2022/04/06 09:00:58;;;;;;;11.77;4.03;;;;;;;17.13;100.00;99963.72;5028269;28;20045;-52
2022/04/06 09:03:27;;;;;;;15.83;4.50;;;;;;;17.15;100.00;99959.66;5014556;28;20073;-48
2022/04/06 09:06:12;;;;;;;13.83;3.77;;;;;;;16.55;100.00;99969.72;5015163;28;20279;-52
2022/04/06 09:08:42;;;;;;;14.83;3.90;;;;;;;17.08;100.00;99959.09;5000164;28;20334;-49
2022/04/06 09:11:12;;;;;;;15.00;4.50;;;;;;;16.84;100.00;99964.00;5014865;28;20264;-51
2022/04/06 09:13:41;;;;;;;21.60;5.77;;;;;;;17.24;100.00;99961.91;5015144;28;20347;-49
2022/04/06 09:16:33;;;;;;;19.33;6.17;;;;;;;16.97;100.00;99958.19;5014059;28;20272;-47
2022/04/06 09:19:13;;;;;;;20.83;5.63;;;;;;;17.29;100.00;99962.72;5015062;28;20295;-47
2022/04/06 09:21:46;;;;;;;14.43;4.80;;;;;;;17.18;100.00;99966.44;5015241;28;20303;-52
2022/04/06 09:24:17;;;;;;;14.23;4.50;;;;;;;17.44;100.00;99959.31;5013151;28;20284;-49
2022/04/06 09:26:44;;;;;;;14.30;4.40;;;;;;;16.99;100.00;99966.88;5001975;28;20289;-52
2022/04/06 09:29:12;;;;;;;16.97;5.90;;;;;;;16.96;100.00;99961.97;5001108;28;20295;-51
2022/04/06 09:31:40;;;;;;;15.97;5.83;;;;;;;17.22;100.00;99958.66;5011001;28;20273;-49
2022/04/06 09:34:10;;;;;;;14.20;6.10;;;;;;;16.73;100.00;99958.56;5008812;28;20279;-50
2022/04/06 09:36:39;;;;;;;11.33;6.87;;;;;;;16.84;100.00;99958.63;5009791;28;20271;-50
2022/04/06 09:39:06;;;;;;;14.67;5.30;;;;;;;16.30;100.00;99960.34;5014573;28;20311;-49
2022/04/06 09:41:33;;;;;;;21.55;6.43;;;;;;;16.81;100.00;99953.75;5008408;28;20280;-48
2022/04/06 09:47:38;;;;;;;18.93;7.40;;;;;;;16.47;100.00;99954.81;5014762;28;20058;-48
2022/04/06 09:50:20;;;;;;;26.97;7.93;;;;;;;16.86;100.00;99951.09;5014534;28;20284;-48
2022/04/06 09:52:51;;;;;;;21.70;8.38;;;;;;;16.09;100.00;99949.34;5000384;28;20268;-49
2022/04/06 09:55:19;;;;;;;21.60;7.57;;;;;;;16.42;100.00;99952.91;4997248;28;20031;-48
2022/04/06 09:57:52;;;;;;;19.37;7.07;;;;;;;16.51;100.00;99955.13;5009045;28;20437;-52
2022/04/06 10:00:20;;;;;;;21.90;8.27;;;;;;;16.24;100.00;99945.19;5020743;28;20362;-50
2022/04/06 10:03:03;;;;;;;21.30;8.23;;;;;;;16.19;100.00;99949.47;5014421;28;20260;-47
2022/04/06 10:05:31;;;;;;;18.10;8.27;;;;;;;16.56;100.00;99937.09;5014103;28;20030;-47
2022/04/06 10:08:01;;;;;;;14.60;7.97;;;;;;;16.68;100.00;99944.19;4996829;28;20272;-53
2022/04/06 10:10:27;;;;;;;22.40;8.47;;;;;;;16.30;100.00;99944.16;5012713;28;20280;-52
2022/04/06 10:12:53;;;;;;;21.65;9.13;;;;;;;16.48;100.00;99941.06;5012792;28;20288;-50
2022/04/06 10:15:19;;;;;;;20.40;8.32;;;;;;;16.33;100.00;99928.28;5012928;28;20034;-49
2022/04/06 10:17:45;;;;;;;21.40;8.52;;;;;;;16.03;100.00;99937.72;5013172;28;20049;-47
2022/04/06 10:20:26;;;;;;;24.65;9.02;;;;;;;16.30;100.00;99931.50;5012962;28;20034;-48
2022/04/06 10:23:16;;;;;;;20.77;9.90;;;;;;;15.93;100.00;99928.69;5013131;28;20097;-50
2022/04/06 10:26:19;;;;;;;18.73;8.47;;;;;;;16.59;100.00;99960.03;5014065;28;20279;-50
2022/04/06 10:28:48;;;;;;;27.67;10.87;;;;;;;16.78;100.00;99928.88;4998461;28;20267;-49
2022/04/06 10:31:22;;;;;;;28.53;11.33;;;;;;;16.67;100.00;99935.28;5026425;28;20271;-48
2022/04/06 10:33:49;;;;;;;24.52;9.57;;;;;;;15.93;100.00;99924.09;5018777;28;20272;-47
2022/04/06 10:36:16;;;;;;;23.60;10.63;;;;;;;16.25;100.00;99925.22;5012770;28;20093;-48
2022/04/06 10:39:08;;;;;;;23.03;10.40;;;;;;;16.00;100.00;99915.81;5012330;28;20284;-51
2022/04/06 10:41:38;;;;;;;22.30;11.20;;;;;;;15.90;100.00;99922.72;5012144;28;20364;-51
2022/04/06 10:44:03;;;;;;;27.13;11.97;;;;;;;15.99;100.00;99935.75;5016663;28;20284;-51
2022/04/06 10:46:41;;;;;;;28.73;13.03;;;;;;;16.72;100.00;99913.72;5001128;28;20286;-49
2022/04/06 10:49:06;;;;;;;31.53;13.77;;;;;;;16.04;100.00;99915.06;5017975;28;20046;-52
2022/04/06 10:51:37;;;;;;;28.23;12.47;;;;;;;16.13;100.00;99911.91;5017561;28;20276;-49
2022/04/06 10:54:13;;;;;;;22.92;11.95;;;;;;;15.69;100.00;99908.19;5017870;28;20049;-48
2022/04/06 10:56:59;;;;;;;31.47;11.80;;;;;;;16.36;100.00;99902.66;4985220;28;20038;-46
2022/04/06 10:59:30;;;;;;;31.00;12.87;;;;;;;16.19;100.00;99900.91;5017790;28;20313;-50
2022/04/06 11:02:21;;;;;;;33.33;12.83;;;;;;;16.63;100.00;99894.50;5017775;28;20283;-51
2022/04/06 11:04:50;;;;;;;24.00;12.70;;;;;;;16.40;100.00;99903.78;5003405;28;20331;-49
2022/04/06 11:10:18;;;;;;;27.77;12.50;;;;;;;16.35;100.00;99903.72;5017361;28;20280;-48
2022/04/06 11:13:03;;;;;;;22.23;12.00;;;;;;;16.38;100.00;99880.81;5001041;28;20294;-50
2022/04/06 11:15:34;;;;;;;20.50;11.70;;;;;;;16.52;100.00;99887.41;5020750;28;20275;-50
2022/04/06 11:17:59;;;;;;;19.90;11.20;;;;;;;16.33;100.00;99882.41;5022649;28;20348;-49
2022/04/06 11:20:32;;;;;;;16.50;9.07;;;;;;;15.97;100.00;99887.47;5019640;28;20284;-49
2022/04/06 11:22:59;;;;;;;25.27;11.77;;;;;;;16.33;100.00;99878.88;5010508;28;20030;-48
2022/04/06 11:25:28;;;;;;;27.07;11.70;;;;;;;16.20;100.00;99907.94;5017167;28;20303;-50
2022/04/06 11:28:04;;;;;;;28.93;10.43;;;;;;;16.16;100.00;99887.09;5017159;28;20260;-50
2022/04/06 11:30:32;;;;;;;24.67;11.30;;;;;;;16.52;100.00;99891.97;5017017;28;20268;-53